createdAt,value
2018-09-23T00:01:45.185Z,55.30
2018-09-23T00:04:13.713Z,56.63
2018-09-23T00:06:42.381Z,58.40
2018-09-23T00:09:10.905Z,68.33
2018-09-23T00:11:40.186Z,53.57
2018-09-23T00:14:09.855Z,54.63
2018-09-23T00:16:38.438Z,56.60
2018-09-23T00:19:07.067Z,58.70
2018-09-23T00:21:35.636Z,54.90
2018-09-23T00:24:04.786Z,58.73
2018-09-23T00:26:33.325Z,60.90
2018-09-23T00:29:02.570Z,73.57
2018-09-23T00:31:31.958Z,64.50
2018-09-23T00:34:01.004Z,68.27
2018-09-23T00:36:29.810Z,66.53
2018-09-23T00:38:58.337Z,70.97
2018-09-23T00:41:26.857Z,67.70
2018-09-23T00:43:55.385Z,66.23
2018-09-23T00:46:23.898Z,66.23
2018-09-23T00:48:52.440Z,68.37
2018-09-23T00:51:21.607Z,68.63
2018-09-23T00:53:50.108Z,66.97
2018-09-23T00:56:18.639Z,77.27
2018-09-23T00:58:47.133Z,68.90
2018-09-23T01:01:15.669Z,66.90
2018-09-23T01:03:44.233Z,69.90
2018-09-23T01:06:12.766Z,64.40
2018-09-23T01:08:42.410Z,65.00
2018-09-23T01:11:11.294Z,69.73
2018-09-23T01:13:39.822Z,68.57
2018-09-23T01:16:08.385Z,69.70
2018-09-23T01:18:36.913Z,63.40
2018-09-23T01:21:05.477Z,67.10
2018-09-23T01:23:34.095Z,73.53
2018-09-23T01:26:02.633Z,67.53
2018-09-23T01:28:31.675Z,69.87
2018-09-23T01:31:00.177Z,73.50
2018-09-23T01:33:28.670Z,70.40
2018-09-23T01:35:57.809Z,63.10
2018-09-23T01:38:26.381Z,65.67
2018-09-23T01:40:54.941Z,69.23
2018-09-23T01:43:23.477Z,65.83
2018-09-23T01:45:52.262Z,63.37
2018-09-23T01:48:20.875Z,62.37
2018-09-23T01:50:49.437Z,63.60
2018-09-23T01:53:18.043Z,70.00
2018-09-23T01:55:46.663Z,69.10
2018-09-23T01:58:15.251Z,75.00
2018-09-23T02:00:43.839Z,67.93
2018-09-23T02:03:12.515Z,71.20
2018-09-23T02:05:41.154Z,70.00
2018-09-23T02:08:09.794Z,63.20
2018-09-23T02:10:38.367Z,71.87
2018-09-23T02:13:07.007Z,73.37
2018-09-23T02:15:35.624Z,70.60
2018-09-23T02:18:04.266Z,60.20
2018-09-23T02:20:32.843Z,63.03
2018-09-23T02:23:01.385Z,68.03
2018-09-23T02:25:29.910Z,64.77
2018-09-23T02:27:58.447Z,63.90
2018-09-23T02:30:26.965Z,66.17
2018-09-23T02:32:55.550Z,67.90
2018-09-23T02:35:24.135Z,60.60
2018-09-23T02:37:54.088Z,70.73
2018-09-23T02:40:22.803Z,59.67
2018-09-23T02:42:51.393Z,56.73
2018-09-23T02:45:19.980Z,62.80
2018-09-23T02:47:48.526Z,59.37
2018-09-23T02:50:17.155Z,68.30
2018-09-23T02:52:45.744Z,55.37
2018-09-23T02:55:14.399Z,55.60
2018-09-23T02:57:42.984Z,60.57
2018-09-23T03:00:11.557Z,58.10
2018-09-23T03:02:40.087Z,56.80
2018-09-23T03:05:08.657Z,65.23
2018-09-23T03:07:37.195Z,55.60
2018-09-23T03:10:05.785Z,57.50
2018-09-23T03:12:34.346Z,67.30
2018-09-23T03:15:02.974Z,59.63
2018-09-23T03:17:31.589Z,61.87
2018-09-23T03:20:00.102Z,58.03
2018-09-23T03:22:28.655Z,58.27
2018-09-23T03:24:57.218Z,66.37
2018-09-23T03:27:25.766Z,60.03
2018-09-23T03:29:54.321Z,63.17
2018-09-23T03:32:22.869Z,58.37
2018-09-23T03:34:51.394Z,58.77
2018-09-23T03:37:20.033Z,65.80
2018-09-23T03:39:48.625Z,59.23
2018-09-23T03:42:17.280Z,61.23
2018-09-23T03:44:45.785Z,63.57
2018-09-23T03:47:14.330Z,59.20
2018-09-23T03:49:42.877Z,61.37
2018-09-23T03:52:11.458Z,69.40
2018-09-23T03:54:39.925Z,56.77
2018-09-23T03:57:11.390Z,58.47
2018-09-23T03:59:39.985Z,61.20
2018-09-23T04:02:08.535Z,66.33
2018-09-23T04:04:37.133Z,58.73
2018-09-23T04:07:05.707Z,58.27
2018-09-23T04:09:34.234Z,56.47
2018-09-23T04:12:02.814Z,54.43
2018-09-23T04:14:31.386Z,54.83
2018-09-23T04:16:59.933Z,59.50
2018-09-23T04:19:28.513Z,58.70
2018-09-23T04:21:57.159Z,63.37
2018-09-23T04:24:25.708Z,74.20
2018-09-23T04:26:54.300Z,60.80
2018-09-23T04:29:22.931Z,61.60
2018-09-23T04:31:51.599Z,58.63
2018-09-23T04:34:20.542Z,65.90
2018-09-23T04:36:49.226Z,67.00
2018-09-23T04:39:17.893Z,58.70
2018-09-23T04:41:46.507Z,63.67
2018-09-23T04:44:15.205Z,66.07
2018-09-23T04:46:43.851Z,55.03
2018-09-23T04:49:12.519Z,56.13
2018-09-23T04:51:41.116Z,64.10
2018-09-23T04:54:09.644Z,60.47
2018-09-23T04:56:38.218Z,58.90
2018-09-23T04:59:06.783Z,51.47
2018-09-23T05:01:35.357Z,55.83
2018-09-23T05:04:03.906Z,60.23
2018-09-23T05:06:32.471Z,52.00
2018-09-23T05:09:00.982Z,53.33
2018-09-23T05:11:29.528Z,52.40
2018-09-23T05:13:58.127Z,63.73
2018-09-23T05:16:27.026Z,55.60
2018-09-23T05:18:55.878Z,54.83
2018-09-23T05:21:24.655Z,57.03
2018-09-23T05:23:53.371Z,54.73
2018-09-23T05:26:22.096Z,52.53
2018-09-23T05:28:50.715Z,53.50
2018-09-23T05:31:19.336Z,49.80
2018-09-23T05:33:48.011Z,46.60
2018-09-23T05:36:16.636Z,59.00
2018-09-23T05:38:45.334Z,53.93
2018-09-23T05:41:13.970Z,53.77
2018-09-23T05:43:42.620Z,48.67
2018-09-23T05:46:11.177Z,53.20
2018-09-23T05:48:39.734Z,61.27
2018-09-23T05:51:08.311Z,49.83
2018-09-23T05:53:36.854Z,55.33
2018-09-23T05:56:05.393Z,55.00
2018-09-23T05:58:33.959Z,50.23
2018-09-23T06:01:02.543Z,61.17
2018-09-23T06:03:31.781Z,62.27
2018-09-23T06:06:00.318Z,55.83
2018-09-23T06:08:28.864Z,63.47
2018-09-23T06:10:57.378Z,60.77
2018-09-23T06:13:25.967Z,54.00
2018-09-23T06:15:54.560Z,54.43
2018-09-23T06:18:23.157Z,58.10
2018-09-23T06:20:51.705Z,57.60
2018-09-23T06:23:20.233Z,60.77
2018-09-23T06:25:48.798Z,55.67
2018-09-23T06:28:17.480Z,62.10
2018-09-23T06:30:46.023Z,67.03
2018-09-23T06:33:15.700Z,61.03
2018-09-23T06:35:44.280Z,54.80
2018-09-23T06:38:12.791Z,61.33
2018-09-23T06:40:41.319Z,57.73
2018-09-23T06:43:10.402Z,62.70
2018-09-23T06:45:39.067Z,64.60
2018-09-23T06:48:07.558Z,64.00
2018-09-23T06:50:36.262Z,70.47
2018-09-23T06:53:04.797Z,76.73
2018-09-23T06:55:34.293Z,74.37
2018-09-23T06:58:03.534Z,70.33
2018-09-23T07:00:32.260Z,60.73
2018-09-23T07:03:01.181Z,73.43
2018-09-23T07:05:29.690Z,60.40
2018-09-23T07:07:58.233Z,56.73
2018-09-23T07:10:27.215Z,54.43
2018-09-23T07:12:55.765Z,52.47
2018-09-23T07:15:24.417Z,52.27
2018-09-23T07:17:53.288Z,57.30
2018-09-23T07:20:21.783Z,50.20
2018-09-23T07:22:50.462Z,46.33
2018-09-23T07:25:19.345Z,52.50
2018-09-23T07:27:47.973Z,48.67
2018-09-23T07:30:16.581Z,45.33
2018-09-23T07:32:45.142Z,48.60
2018-09-23T07:35:13.873Z,49.63
2018-09-23T07:37:43.362Z,52.10
2018-09-23T07:40:11.899Z,50.07
2018-09-23T07:42:40.415Z,48.20
2018-09-23T07:45:09.449Z,64.80
2018-09-23T07:47:37.957Z,61.83
2018-09-23T07:50:06.708Z,71.10
2018-09-23T07:52:35.449Z,85.43
2018-09-23T07:55:04.657Z,84.63
2018-09-23T07:57:33.181Z,84.27
2018-09-23T08:00:02.938Z,74.90
2018-09-23T08:02:31.906Z,70.77
2018-09-23T08:05:00.919Z,71.40
2018-09-23T08:07:29.385Z,53.30
2018-09-23T08:09:57.910Z,45.07
2018-09-23T08:12:26.423Z,49.63
2018-09-23T08:14:55.496Z,46.73
2018-09-23T08:17:23.509Z,47.07
2018-09-23T08:19:52.226Z,42.97
2018-09-23T08:22:20.698Z,41.77
2018-09-23T08:24:49.235Z,46.33
2018-09-23T08:27:17.781Z,44.73
2018-09-23T08:29:46.279Z,46.67
2018-09-23T08:32:14.784Z,43.40
2018-09-23T08:34:43.257Z,44.43
2018-09-23T08:37:11.821Z,45.33
2018-09-23T08:39:40.298Z,64.87
2018-09-23T08:42:08.888Z,45.87
2018-09-23T08:44:37.375Z,47.23
2018-09-23T08:47:05.932Z,49.93
2018-09-23T08:49:34.529Z,48.03
2018-09-23T08:52:03.047Z,43.40
2018-09-23T08:54:31.622Z,55.57
2018-09-23T08:57:00.134Z,47.20
2018-09-23T08:59:28.716Z,45.93
2018-09-23T09:01:57.226Z,53.60
2018-09-23T09:04:25.873Z,46.83
2018-09-23T09:06:54.439Z,50.80
2018-09-23T09:09:23.254Z,46.90
2018-09-23T09:11:51.760Z,60.57
2018-09-23T09:14:20.283Z,44.27
2018-09-23T09:21:45.471Z,60.57
2018-09-23T09:24:13.995Z,60.07
2018-09-23T09:26:43.193Z,52.30
2018-09-23T09:29:11.787Z,57.30
2018-09-23T09:31:40.502Z,59.13
2018-09-23T09:34:09.154Z,65.43
2018-09-23T09:36:37.674Z,55.03
2018-09-23T09:39:09.582Z,61.97
2018-09-23T09:41:38.222Z,61.03
2018-09-23T09:44:07.128Z,62.40
2018-09-23T09:46:35.909Z,65.67
2018-09-23T09:49:05.091Z,60.50
2018-09-23T09:51:34.105Z,58.97
2018-09-23T09:54:02.910Z,67.83
2018-09-23T09:56:32.186Z,71.33
2018-09-23T09:59:01.018Z,68.53
2018-09-23T10:01:29.538Z,59.93
2018-09-23T10:03:58.138Z,67.20
2018-09-23T10:06:26.593Z,69.20
2018-09-23T10:08:55.157Z,72.70
2018-09-23T10:11:23.855Z,70.37
2018-09-23T10:13:52.395Z,67.87
2018-09-23T10:16:21.002Z,63.40
2018-09-23T10:18:49.505Z,71.27
2018-09-23T10:21:18.397Z,68.70
2018-09-23T10:23:46.987Z,75.20
2018-09-23T10:26:15.490Z,66.03
2018-09-23T10:28:44.040Z,81.17
2018-09-23T10:31:12.638Z,69.00
2018-09-23T10:33:41.614Z,73.20
2018-09-23T10:36:10.186Z,67.30
2018-09-23T10:38:38.835Z,72.23
2018-09-23T10:41:07.360Z,64.33
2018-09-23T10:43:35.919Z,70.80
2018-09-23T10:46:04.459Z,78.20
2018-09-23T10:48:33.475Z,89.07
2018-09-23T10:51:02.016Z,66.37
2018-09-23T10:53:32.010Z,66.93
2018-09-23T10:56:00.546Z,76.13
2018-09-23T10:58:29.090Z,86.27
2018-09-23T11:00:57.644Z,73.10
2018-09-23T11:03:32.669Z,64.07
2018-09-23T11:06:02.135Z,67.27
2018-09-23T11:08:30.669Z,73.63
2018-09-23T11:10:59.210Z,66.50
2018-09-23T11:13:27.888Z,61.90
2018-09-23T11:15:56.410Z,66.30
2018-09-23T11:18:24.910Z,63.43
2018-09-23T11:20:53.439Z,67.80
2018-09-23T11:23:23.161Z,67.20
2018-09-23T11:25:51.655Z,64.83
2018-09-23T11:28:20.894Z,82.43
2018-09-23T11:30:50.101Z,86.03
2018-09-23T11:33:19.181Z,78.47
2018-09-23T11:35:49.219Z,71.10
2018-09-23T11:38:17.966Z,68.27
2018-09-23T11:40:46.502Z,67.20
2018-09-23T11:43:15.010Z,74.47
2018-09-23T11:45:43.518Z,70.60
2018-09-23T11:48:12.133Z,71.23
2018-09-23T11:50:41.397Z,66.30
2018-09-23T11:53:09.959Z,71.77
2018-09-23T11:55:38.575Z,53.47
2018-09-23T11:58:07.934Z,60.30
2018-09-23T12:00:36.442Z,54.70
2018-09-23T12:03:04.966Z,64.03
2018-09-23T12:05:33.494Z,51.33
2018-09-23T12:08:01.999Z,32.23
2018-09-23T12:10:30.752Z,42.50
2018-09-23T12:12:59.275Z,40.43
2018-09-23T12:15:27.803Z,33.67
2018-09-23T12:17:56.374Z,40.03
2018-09-23T12:20:24.939Z,34.43
2018-09-23T12:22:53.409Z,39.03
2018-09-23T12:25:22.720Z,44.97
2018-09-23T12:27:52.281Z,41.77
2018-09-23T12:30:20.757Z,38.70
2018-09-23T12:32:49.286Z,25.30
2018-09-23T12:35:17.919Z,39.33
2018-09-23T12:37:46.489Z,32.47
2018-09-23T12:40:15.048Z,35.23
2018-09-23T12:42:43.671Z,35.43
2018-09-23T12:45:12.224Z,37.57
2018-09-23T12:47:40.781Z,36.37
2018-09-23T12:50:09.403Z,28.80
2018-09-23T12:52:37.966Z,30.13
2018-09-23T12:55:06.551Z,30.50
2018-09-23T12:57:35.113Z,26.83
2018-09-23T13:00:03.873Z,33.43
2018-09-23T13:02:32.442Z,34.17
2018-09-23T13:05:01.634Z,30.87
2018-09-23T13:07:30.152Z,32.93
2018-09-23T13:09:58.628Z,31.63
2018-09-23T13:12:27.431Z,35.90
2018-09-23T13:14:55.951Z,33.60
2018-09-23T13:17:24.661Z,37.27
2018-09-23T13:19:53.285Z,39.53
2018-09-23T13:22:21.798Z,38.80
2018-09-23T13:24:50.906Z,34.60
2018-09-23T13:27:19.453Z,37.70
2018-09-23T13:29:47.961Z,39.33
2018-09-23T13:32:16.501Z,34.73
2018-09-23T13:34:45.700Z,39.27
2018-09-23T13:37:14.217Z,34.13
2018-09-23T13:39:42.702Z,41.77
2018-09-23T13:42:11.239Z,41.83
2018-09-23T13:44:40.345Z,28.40
2018-09-23T13:47:08.869Z,27.63
2018-09-23T13:49:37.433Z,25.77
2018-09-23T13:52:06.666Z,32.53
2018-09-23T13:54:35.213Z,25.43
2018-09-23T13:57:04.249Z,19.57
2018-09-23T13:59:32.788Z,20.43
2018-09-23T14:02:01.267Z,11.30
2018-09-23T14:04:29.810Z,16.37
2018-09-23T14:07:05.263Z,25.93
2018-09-23T14:09:33.842Z,21.63
2018-09-23T14:12:02.370Z,26.47
2018-09-23T14:14:30.849Z,22.97
2018-09-23T14:16:59.437Z,23.23
2018-09-23T14:19:27.913Z,20.87
2018-09-23T14:21:56.463Z,23.73
2018-09-23T14:24:25.885Z,18.70
2018-09-23T14:26:54.406Z,18.90
2018-09-23T14:29:22.935Z,21.83
2018-09-23T14:31:51.423Z,21.33
2018-09-23T14:34:19.941Z,25.17
2018-09-23T14:36:48.485Z,27.77
2018-09-23T14:39:16.970Z,19.30
2018-09-23T14:41:45.474Z,19.70
2018-09-23T14:44:14.537Z,28.50
2018-09-23T14:46:43.073Z,21.97
2018-09-23T14:49:11.609Z,23.63
2018-09-23T14:51:40.101Z,23.60
2018-09-23T14:54:08.692Z,18.40
2018-09-23T14:56:37.150Z,24.30
2018-09-23T14:59:05.703Z,22.23
2018-09-23T15:01:34.186Z,25.20
2018-09-23T15:04:02.718Z,13.20
2018-09-23T15:06:31.892Z,15.60
2018-09-23T15:09:00.304Z,16.57
2018-09-23T15:11:28.832Z,18.00
2018-09-23T15:13:57.402Z,20.20
2018-09-23T15:16:26.598Z,12.07
2018-09-23T15:18:55.181Z,8.20
2018-09-23T15:21:24.414Z,19.97
2018-09-23T15:23:52.924Z,15.93
2018-09-23T15:26:22.115Z,10.50
2018-09-23T15:28:50.614Z,16.57
2018-09-23T15:31:19.617Z,16.80
2018-09-23T15:33:48.157Z,17.37
2018-09-23T15:36:16.646Z,13.70
2018-09-23T15:38:45.178Z,18.63
2018-09-23T15:41:13.638Z,16.60
2018-09-23T15:43:42.799Z,16.17
2018-09-23T15:46:11.363Z,14.20
2018-09-23T15:48:39.875Z,23.17
2018-09-23T15:51:08.435Z,13.73
2018-09-23T15:53:37.094Z,22.67
2018-09-23T15:56:05.597Z,23.47
2018-09-23T15:58:34.638Z,11.30
2018-09-23T16:01:03.122Z,12.97
2018-09-23T16:03:32.350Z,6.83
2018-09-23T16:06:00.811Z,6.90
2018-09-23T16:08:29.311Z,13.17
2018-09-23T16:10:57.965Z,6.93
2018-09-23T16:13:26.546Z,7.10
2018-09-23T16:15:55.010Z,7.00
2018-09-23T16:18:23.865Z,4.63
2018-09-23T16:20:52.306Z,5.23
2018-09-23T16:23:20.790Z,8.37
2018-09-23T16:25:49.393Z,9.80
2018-09-23T16:28:17.894Z,5.60
2018-09-23T16:30:46.466Z,5.90
2018-09-23T16:33:15.092Z,7.13
2018-09-23T16:35:43.644Z,9.23
2018-09-23T16:38:13.191Z,3.47
2018-09-23T16:40:41.665Z,11.17
2018-09-23T16:43:10.201Z,9.40
2018-09-23T16:45:38.742Z,5.63
2018-09-23T16:48:07.577Z,10.00
2018-09-23T16:50:37.282Z,9.20
2018-09-23T16:53:06.550Z,10.57
2018-09-23T16:55:35.067Z,9.30
2018-09-23T16:58:04.258Z,13.63
2018-09-23T17:00:32.859Z,12.50
2018-09-23T17:03:01.314Z,13.23
2018-09-23T17:05:30.483Z,7.27
2018-09-23T17:07:59.022Z,13.40
2018-09-23T17:10:28.217Z,14.17
2018-09-23T17:12:56.764Z,18.43
2018-09-23T17:15:25.291Z,11.33
2018-09-23T17:17:53.846Z,8.87
2018-09-23T17:20:22.444Z,10.13
2018-09-23T17:22:51.114Z,12.30
2018-09-23T17:25:19.626Z,13.53
2018-09-23T17:27:48.398Z,16.40
2018-09-23T17:30:16.982Z,10.77
2018-09-23T17:32:45.445Z,14.50
2018-09-23T17:35:14.026Z,12.90
2018-09-23T17:37:42.766Z,12.17
2018-09-23T17:40:11.289Z,15.87
2018-09-23T17:42:40.254Z,9.17
2018-09-23T17:45:09.310Z,12.20
2018-09-23T17:47:37.795Z,12.10
2018-09-23T17:50:06.818Z,12.90
2018-09-23T17:52:35.415Z,13.70
2018-09-23T17:55:03.998Z,19.23
2018-09-23T17:57:32.467Z,9.23
2018-09-23T18:00:01.045Z,13.50
2018-09-23T18:02:30.310Z,12.27
2018-09-23T18:04:58.906Z,10.77
2018-09-23T18:07:27.440Z,9.63
2018-09-23T18:09:56.918Z,9.53
2018-09-23T18:12:25.440Z,7.73
2018-09-23T18:14:53.953Z,14.23
2018-09-23T18:17:22.751Z,14.73
2018-09-23T18:19:51.246Z,7.90
2018-09-23T18:22:19.833Z,12.37
2018-09-23T18:24:49.224Z,8.07
2018-09-23T18:27:17.709Z,11.83
2018-09-23T18:29:46.519Z,9.23
2018-09-23T18:32:15.830Z,10.40
2018-09-23T18:34:44.460Z,13.70
2018-09-23T18:37:13.085Z,12.00
2018-09-23T18:39:44.075Z,13.20
2018-09-23T18:42:13.700Z,11.30
2018-09-23T18:44:42.782Z,14.10
2018-09-23T18:47:11.515Z,10.60
2018-09-23T18:49:42.567Z,13.07
2018-09-23T18:52:11.069Z,10.07
2018-09-23T18:54:45.037Z,12.67
2018-09-23T18:57:13.945Z,19.63
2018-09-23T18:59:42.610Z,9.67
2018-09-23T19:02:11.248Z,6.63
2018-09-23T19:04:39.894Z,8.63
2018-09-23T19:07:08.428Z,9.73
2018-09-23T19:09:37.824Z,8.63
2018-09-23T19:12:06.397Z,9.23
2018-09-23T19:14:35.207Z,7.87
2018-09-23T19:17:03.895Z,18.77
2018-09-23T19:19:37.549Z,7.73
2018-09-23T19:22:10.234Z,5.03
2018-09-23T19:24:38.754Z,7.73
2018-09-23T19:27:07.229Z,7.53
2018-09-23T19:29:35.842Z,6.10
2018-09-23T19:32:04.525Z,15.77
2018-09-23T19:34:33.069Z,15.53
2018-09-23T19:37:01.636Z,3.97
2018-09-23T19:39:30.231Z,10.20
2018-09-23T19:41:58.873Z,4.80
2018-09-23T19:44:27.398Z,12.10
2018-09-23T19:46:55.886Z,7.17
2018-09-23T19:49:24.525Z,7.20
2018-09-23T19:51:53.017Z,12.43
2018-09-23T19:54:22.287Z,9.83
2018-09-23T19:56:50.885Z,7.80
2018-09-23T19:59:19.475Z,10.67
2018-09-23T20:01:47.986Z,15.90
2018-09-23T20:04:17.479Z,9.40
2018-09-23T20:06:46.073Z,8.13
2018-09-23T20:09:14.672Z,22.27
2018-09-23T20:11:43.174Z,14.00
2018-09-23T20:14:12.397Z,15.40
2018-09-23T20:16:41.730Z,13.83
2018-09-23T20:19:10.243Z,12.70
2018-09-23T20:21:38.868Z,12.93
2018-09-23T20:24:07.432Z,18.70
2018-09-23T20:26:35.930Z,15.00
2018-09-23T20:29:04.444Z,16.30
2018-09-23T20:31:33.282Z,11.90
2018-09-23T20:34:01.756Z,13.37
2018-09-23T20:36:30.279Z,14.73
2018-09-23T20:38:58.960Z,12.93
2018-09-23T20:41:28.610Z,10.57
2018-09-23T20:43:57.208Z,15.33
2018-09-23T20:46:26.274Z,22.60
2018-09-23T20:48:54.846Z,9.30
2018-09-23T20:51:23.330Z,11.83
2018-09-23T20:53:51.990Z,14.90
2018-09-23T20:56:20.457Z,14.73
2018-09-23T20:58:49.017Z,7.90
2018-09-23T21:01:17.557Z,9.53
2018-09-23T21:03:46.070Z,14.87
2018-09-23T21:06:14.577Z,11.60
2018-09-23T21:08:43.083Z,10.00
2018-09-23T21:11:12.526Z,16.00
2018-09-23T21:13:41.412Z,12.17
2018-09-23T21:16:09.907Z,9.03
2018-09-23T21:18:38.414Z,9.33
2018-09-23T21:21:07.193Z,8.80
2018-09-23T21:23:35.717Z,14.07
2018-09-23T21:26:04.249Z,12.37
2018-09-23T21:28:33.738Z,11.90
2018-09-23T21:31:03.565Z,10.83
2018-09-23T21:33:32.042Z,16.30
2018-09-23T21:36:00.559Z,14.30
2018-09-23T21:38:29.262Z,16.47
2018-09-23T21:40:57.722Z,14.70
2018-09-23T21:43:26.234Z,18.70
2018-09-23T21:45:54.732Z,15.63
2018-09-23T21:48:23.276Z,17.33
2018-09-23T21:50:51.848Z,23.60
2018-09-23T21:53:26.909Z,12.07
2018-09-23T21:55:55.553Z,29.30
2018-09-23T21:58:24.813Z,14.17
2018-09-23T22:00:53.545Z,18.30
2018-09-23T22:03:22.728Z,15.47
2018-09-23T22:05:51.218Z,14.17
2018-09-23T22:08:19.766Z,15.73
2018-09-23T22:10:48.300Z,16.83
2018-09-23T22:13:16.785Z,13.60
2018-09-23T22:15:45.342Z,20.27
2018-09-23T22:18:13.943Z,27.73
2018-09-23T22:20:42.567Z,7.17
2018-09-23T22:23:11.077Z,12.90
2018-09-23T22:25:39.749Z,7.67
2018-09-23T22:28:08.373Z,13.13
2018-09-23T22:30:36.888Z,8.53
2018-09-23T22:33:05.482Z,12.67
2018-09-23T22:35:34.073Z,5.03
2018-09-23T22:38:03.494Z,13.67
2018-09-23T22:40:32.035Z,11.90
2018-09-23T22:43:00.537Z,13.40
2018-09-23T22:45:29.047Z,9.77
2018-09-23T22:47:57.522Z,5.77
2018-09-23T22:50:26.023Z,7.53
2018-09-23T22:52:54.501Z,11.40
2018-09-23T22:55:23.044Z,15.57
2018-09-23T22:57:51.610Z,19.07
2018-09-23T23:00:20.441Z,13.27
2018-09-23T23:02:48.936Z,9.30
2018-09-23T23:05:17.501Z,20.10
2018-09-23T23:07:46.044Z,9.40
2018-09-23T23:10:14.526Z,10.77
2018-09-23T23:12:43.061Z,9.13
2018-09-23T23:15:11.573Z,8.63
2018-09-23T23:17:40.055Z,14.83
2018-09-23T23:20:08.623Z,18.80
2018-09-23T23:22:37.199Z,14.47
2018-09-23T23:25:06.044Z,8.90
2018-09-23T23:27:34.633Z,13.20
2018-09-23T23:30:03.774Z,15.80
2018-09-23T23:32:32.245Z,9.97
2018-09-23T23:35:01.381Z,5.60
2018-09-23T23:37:29.950Z,11.13
2018-09-23T23:39:58.452Z,9.90
2018-09-23T23:42:26.940Z,5.17
2018-09-23T23:44:55.476Z,10.60
2018-09-23T23:47:24.051Z,13.37
2018-09-23T23:49:52.598Z,10.17
2018-09-23T23:52:21.065Z,16.57
2018-09-23T23:54:49.713Z,11.23
2018-09-23T23:57:18.757Z,11.93
2018-09-23T23:59:47.283Z,15.97
